• Join FlightAware (Why Join?)
  • Login
  • US Flag 
06:54AM EDT


 

Airport Tracker/Info


-or-


 

Live Flight TrackerFlight Track Log ✈ N97508 ✈ 30-May-2013 ✈ KCRW - I69

Flight Track Log - Related Links

Times and Time Zones

All times are in EDT time to prevent confusion due to time zone crossing. See the N97508 flight status page for this flight to view local times or setup timezone preferences in your user account.

Time Position Orientation Groundspeed Altitude Reporting Facility
EDT Latitude Longitude Course Direction KTS MPH feet Rate Location/Type
10:02AM 38.4150 -81.7840 290° West 104 120 3,300  Level FlightAware
10:03AM 38.4190 -81.7990 289° West 102 117 3,500 420 Climbing FlightAware
10:03AM 38.4240 -81.8150 292° West 102 117 3,700 540 Climbing FlightAware
10:04AM 38.4280 -81.8310 288° West 104 120 4,000 480 Climbing FlightAware
10:04AM 38.4330 -81.8490 290° West 108 124 4,200 180 Climbing FlightAware
10:05AM 38.4380 -81.8660 291° West 118 136 4,200 60 Level FlightAware
10:05AM 38.4430 -81.8830 291° West 123 142 4,300 60 Climbing FlightAware
10:05AM 38.4490 -81.9030 291° West 126 145 4,300  Level FlightAware
10:06AM 38.4550 -81.9230 291° West 127 146 4,300  Level FlightAware
10:06AM 38.4610 -81.9430 291° West 129 148 4,300  Level FlightAware
10:07AM 38.4630 -81.9520 286° West 129 148 4,300  Level FlightAware
10:07AM 38.4700 -81.9750 291° West 130 150 4,300 -120 Level FlightAware
10:08AM 38.4760 -81.9950 291° West 132 152 4,200  Descending FlightAware
10:08AM 38.4820 -82.0160 290° West 130 150 4,300 60 Climbing FlightAware
10:09AM 38.4950 -82.0660 288° West 130 150 4,300  Level FlightAware
10:10AM 38.5000 -82.0830 291° West 130 150 4,300  Level FlightAware
10:10AM 38.5060 -82.1040 290° West 128 147 4,300 120 Level FlightAware
10:11AM 38.5181 -82.1453 290° West 128 147 4,500 60 Climbing Indianapolis Center
10:12AM 38.5303 -82.1886 290° West 128 147 4,500  Level Indianapolis Center
10:13AM 38.5419 -82.2306 290° West 127 146 4,500  Level Indianapolis Center
10:14AM 38.5567 -82.2817 290° West 127 146 4,500  Level Indianapolis Center
10:15AM 38.5681 -82.3236 289° West 126 145 4,500  Level Indianapolis Center
10:16AM 38.5803 -82.3669 290° West 128 147 4,500  Level Indianapolis Center
10:17AM 38.5928 -82.4103 290° West 129 148 4,500  Level Indianapolis Center
10:18AM 38.6047 -82.4531 290° West 129 148 4,500  Level Indianapolis Center
10:20AM 38.6178 -82.4989 290° West 126 145 4,500  Level Indianapolis Center
10:21AM 38.6292 -82.5436 288° West 131 151 4,500  Level Indianapolis Center
10:22AM 38.6419 -82.5853 291° West 128 147 4,500  Level Indianapolis Center
10:23AM 38.6544 -82.6331 289° West 126 145 4,500  Level Indianapolis Center
10:24AM 38.6667 -82.6767 290° West 128 147 4,500  Level Indianapolis Center
10:25AM 38.6789 -82.7200 290° West 130 150 4,500  Level Indianapolis Center
10:26AM 38.6972 -82.7597 301° West 130 150 4,500  Level Indianapolis Center
10:27AM 38.7081 -82.8025 288° West 128 147 4,500  Level Indianapolis Center
10:28AM 38.7225 -82.8556 289° West 130 150 4,500  Level Indianapolis Center
10:29AM 38.7350 -82.8994 290° West 131 151 4,500  Level Indianapolis Center
10:30AM 38.7458 -82.9431 288° West 130 150 4,500  Level Indianapolis Center
10:31AM 38.7578 -82.9853 290° West 126 145 4,500  Level Indianapolis Center
10:32AM 38.7703 -83.0292 290° West 130 150 4,500  Level Indianapolis Center
10:33AM 38.7808 -83.0733 287° West 129 148 4,500  Level Indianapolis Center
10:34AM 38.7958 -83.1261 290° West 132 152 4,500  Level Indianapolis Center
10:35AM 38.8072 -83.1686 289° West 130 150 4,500  Level Indianapolis Center
10:36AM 38.8183 -83.2133 288° West 129 148 4,500  Level Indianapolis Center
10:37AM 38.8308 -83.2564 290° West 128 147 4,500  Level Indianapolis Center
10:38AM 38.8411 -83.2989 287° West 125 144 4,500  Level Indianapolis Center
10:39AM 38.8536 -83.3419 290° West 126 145 4,500  Level Indianapolis Center
10:40AM 38.8650 -83.3853 289° West 128 147 4,500  Level Indianapolis Center
10:41AM 38.8758 -83.4294 288° West 129 148 4,500  Level Indianapolis Center
10:42AM 38.8889 -83.4794 289° West 127 146 4,500 -60 Level Indianapolis Center
10:43AM 38.9008 -83.5222 290° West 126 145 4,400 -60 Descending Indianapolis Center
10:44AM 38.9117 -83.5653 288° West 127 146 4,400  Level Indianapolis Center
10:45AM 38.9233 -83.6097 289° West 131 151 4,400  Level Indianapolis Center
10:46AM 38.9336 -83.6519 287° West 130 150 4,400  Level Indianapolis Center
10:47AM 38.9453 -83.6942 290° West 126 145 4,400  Level Indianapolis Center
10:48AM 38.9564 -83.7378 288° West 127 146 4,400  Level Indianapolis Center
10:49AM 38.9672 -83.7800 288° West 124 143 4,400  Level Indianapolis Center
10:50AM 38.9792 -83.8244 289° West 127 146 4,400  Level Indianapolis Center
10:51AM 38.9894 -83.8664 288° West 124 143 4,400 -60 Level Indianapolis Center
10:53AM 39.0025 -83.9147 289° West 122 140 4,300 -300 Descending Indianapolis Center
10:54AM 39.0142 -83.9606 288° West 127 146 3,900 -480 Descending Indianapolis Center
10:55AM 39.0264 -84.0075 289° West 132 152 3,400 -300 Descending Indianapolis Center
10:56AM 39.0367 -84.0486 288° West 132 152 3,400  Level Indianapolis Center